sensor_id;sensor_type;location;lat;lon;timestamp;P1;durP1;ratioP1;P2;durP2;ratioP2
9473;SDS011;8865;47.636;7.692;2023-12-20T00:01:40;9.10;;;7.10;;
9473;SDS011;8865;47.636;7.692;2023-12-20T00:04:06;8.57;;;6.33;;
9473;SDS011;8865;47.636;7.692;2023-12-20T00:06:32;8.53;;;6.50;;
9473;SDS011;8865;47.636;7.692;2023-12-20T00:08:58;7.00;;;5.97;;
9473;SDS011;8865;47.636;7.692;2023-12-20T00:11:24;7.90;;;6.37;;
9473;SDS011;8865;47.636;7.692;2023-12-20T00:13:50;7.43;;;6.50;;
9473;SDS011;8865;47.636;7.692;2023-12-20T00:16:17;7.60;;;6.63;;
9473;SDS011;8865;47.636;7.692;2023-12-20T00:18:43;8.57;;;7.13;;
9473;SDS011;8865;47.636;7.692;2023-12-20T00:21:09;6.83;;;5.80;;
9473;SDS011;8865;47.636;7.692;2023-12-20T00:23:35;6.70;;;5.73;;
9473;SDS011;8865;47.636;7.692;2023-12-20T00:26:01;7.10;;;6.07;;
9473;SDS011;8865;47.636;7.692;2023-12-20T00:30:56;7.87;;;5.77;;
9473;SDS011;8865;47.636;7.692;2023-12-20T00:33:21;6.10;;;5.30;;
9473;SDS011;8865;47.636;7.692;2023-12-20T00:35:48;4.43;;;3.87;;
9473;SDS011;8865;47.636;7.692;2023-12-20T00:38:14;3.00;;;2.70;;
9473;SDS011;8865;47.636;7.692;2023-12-20T00:40:40;3.27;;;2.70;;
9473;SDS011;8865;47.636;7.692;2023-12-20T00:43:06;2.93;;;2.70;;
9473;SDS011;8865;47.636;7.692;2023-12-20T00:45:32;4.37;;;2.77;;
9473;SDS011;8865;47.636;7.692;2023-12-20T00:47:58;2.87;;;2.57;;
9473;SDS011;8865;47.636;7.692;2023-12-20T00:50:25;2.50;;;2.30;;
9473;SDS011;8865;47.636;7.692;2023-12-20T00:52:51;3.83;;;2.87;;
9473;SDS011;8865;47.636;7.692;2023-12-20T00:55:17;3.53;;;2.80;;
9473;SDS011;8865;47.636;7.692;2023-12-20T00:57:43;2.80;;;2.60;;
9473;SDS011;8865;47.636;7.692;2023-12-20T01:00:09;2.60;;;2.40;;
9473;SDS011;8865;47.636;7.692;2023-12-20T01:02:35;3.23;;;2.77;;
9473;SDS011;8865;47.636;7.692;2023-12-20T01:05:01;3.17;;;2.47;;
9473;SDS011;8865;47.636;7.692;2023-12-20T01:07:28;2.90;;;2.60;;
9473;SDS011;8865;47.636;7.692;2023-12-20T01:09:54;3.90;;;2.47;;
9473;SDS011;8865;47.636;7.692;2023-12-20T01:12:20;3.27;;;2.43;;
9473;SDS011;8865;47.636;7.692;2023-12-20T01:14:46;2.70;;;2.23;;
9473;SDS011;8865;47.636;7.692;2023-12-20T01:17:12;3.10;;;2.50;;
9473;SDS011;8865;47.636;7.692;2023-12-20T01:19:38;2.73;;;2.53;;
9473;SDS011;8865;47.636;7.692;2023-12-20T01:22:04;2.60;;;2.40;;
9473;SDS011;8865;47.636;7.692;2023-12-20T01:24:30;2.80;;;2.40;;
9473;SDS011;8865;47.636;7.692;2023-12-20T01:26:56;2.73;;;2.50;;
9473;SDS011;8865;47.636;7.692;2023-12-20T01:29:22;3.00;;;2.70;;
9473;SDS011;8865;47.636;7.692;2023-12-20T01:31:48;3.07;;;2.77;;
9473;SDS011;8865;47.636;7.692;2023-12-20T01:34:14;4.10;;;3.07;;
9473;SDS011;8865;47.636;7.692;2023-12-20T01:36:40;4.37;;;3.97;;
9473;SDS011;8865;47.636;7.692;2023-12-20T01:39:06;4.33;;;3.93;;
9473;SDS011;8865;47.636;7.692;2023-12-20T01:41:32;4.83;;;4.23;;
9473;SDS011;8865;47.636;7.692;2023-12-20T01:43:58;5.60;;;4.13;;
9473;SDS011;8865;47.636;7.692;2023-12-20T01:46:24;4.13;;;3.50;;
9473;SDS011;8865;47.636;7.692;2023-12-20T01:48:51;3.60;;;3.10;;
9473;SDS011;8865;47.636;7.692;2023-12-20T01:51:17;5.07;;;3.50;;
9473;SDS011;8865;47.636;7.692;2023-12-20T01:53:44;3.77;;;3.07;;
9473;SDS011;8865;47.636;7.692;2023-12-20T01:56:11;4.40;;;3.50;;
9473;SDS011;8865;47.636;7.692;2023-12-20T01:58:43;4.30;;;3.30;;
9473;SDS011;8865;47.636;7.692;2023-12-20T02:01:11;3.47;;;3.17;;
9473;SDS011;8865;47.636;7.692;2023-12-20T02:03:38;3.87;;;3.13;;
9473;SDS011;8865;47.636;7.692;2023-12-20T02:06:06;4.20;;;3.17;;
9473;SDS011;8865;47.636;7.692;2023-12-20T02:08:34;3.40;;;3.10;;
9473;SDS011;8865;47.636;7.692;2023-12-20T02:11:00;4.60;;;3.30;;
9473;SDS011;8865;47.636;7.692;2023-12-20T02:13:26;4.97;;;3.30;;
9473;SDS011;8865;47.636;7.692;2023-12-20T02:15:52;4.00;;;3.10;;
9473;SDS011;8865;47.636;7.692;2023-12-20T02:18:18;3.23;;;2.93;;
9473;SDS011;8865;47.636;7.692;2023-12-20T02:20:44;3.57;;;3.10;;
9473;SDS011;8865;47.636;7.692;2023-12-20T02:23:10;3.37;;;2.90;;
9473;SDS011;8865;47.636;7.692;2023-12-20T02:25:36;3.00;;;2.70;;
9473;SDS011;8865;47.636;7.692;2023-12-20T02:28:03;4.17;;;2.90;;
9473;SDS011;8865;47.636;7.692;2023-12-20T02:30:30;3.50;;;2.90;;
9473;SDS011;8865;47.636;7.692;2023-12-20T02:32:56;3.83;;;2.90;;
9473;SDS011;8865;47.636;7.692;2023-12-20T02:35:23;4.87;;;3.10;;
9473;SDS011;8865;47.636;7.692;2023-12-20T02:37:49;4.00;;;2.90;;
9473;SDS011;8865;47.636;7.692;2023-12-20T02:40:15;3.20;;;2.70;;
9473;SDS011;8865;47.636;7.692;2023-12-20T02:42:41;2.97;;;2.63;;
9473;SDS011;8865;47.636;7.692;2023-12-20T02:45:07;4.00;;;2.60;;
9473;SDS011;8865;47.636;7.692;2023-12-20T02:47:33;3.00;;;2.70;;
9473;SDS011;8865;47.636;7.692;2023-12-20T02:49:59;4.27;;;2.83;;
9473;SDS011;8865;47.636;7.692;2023-12-20T02:52:27;3.47;;;2.70;;
9473;SDS011;8865;47.636;7.692;2023-12-20T02:54:53;4.90;;;2.90;;
9473;SDS011;8865;47.636;7.692;2023-12-20T02:57:19;3.10;;;2.80;;
9473;SDS011;8865;47.636;7.692;2023-12-20T02:59:46;3.53;;;2.87;;
9473;SDS011;8865;47.636;7.692;2023-12-20T03:02:12;3.40;;;2.67;;
9473;SDS011;8865;47.636;7.692;2023-12-20T03:04:37;4.17;;;2.70;;
9473;SDS011;8865;47.636;7.692;2023-12-20T03:07:03;3.77;;;2.70;;
9473;SDS011;8865;47.636;7.692;2023-12-20T03:09:29;3.00;;;2.77;;
9473;SDS011;8865;47.636;7.692;2023-12-20T03:11:55;3.90;;;3.50;;
9473;SDS011;8865;47.636;7.692;2023-12-20T03:14:21;4.43;;;3.70;;
9473;SDS011;8865;47.636;7.692;2023-12-20T03:16:50;4.67;;;3.97;;
9473;SDS011;8865;47.636;7.692;2023-12-20T03:19:17;4.53;;;4.07;;
9473;SDS011;8865;47.636;7.692;2023-12-20T03:21:45;4.87;;;4.07;;
9473;SDS011;8865;47.636;7.692;2023-12-20T03:24:11;4.30;;;3.87;;
9473;SDS011;8865;47.636;7.692;2023-12-20T03:26:37;4.47;;;3.90;;
9473;SDS011;8865;47.636;7.692;2023-12-20T03:29:03;4.83;;;3.93;;
9473;SDS011;8865;47.636;7.692;2023-12-20T03:31:29;4.60;;;3.90;;
9473;SDS011;8865;47.636;7.692;2023-12-20T03:33:55;5.67;;;3.97;;
9473;SDS011;8865;47.636;7.692;2023-12-20T03:36:21;4.60;;;4.20;;
9473;SDS011;8865;47.636;7.692;2023-12-20T03:38:47;4.20;;;3.63;;
9473;SDS011;8865;47.636;7.692;2023-12-20T03:41:13;5.47;;;4.33;;
9473;SDS011;8865;47.636;7.692;2023-12-20T03:43:39;4.70;;;4.10;;
9473;SDS011;8865;47.636;7.692;2023-12-20T03:46:05;4.77;;;4.23;;
9473;SDS011;8865;47.636;7.692;2023-12-20T03:48:31;4.77;;;4.37;;
9473;SDS011;8865;47.636;7.692;2023-12-20T03:50:57;4.70;;;3.87;;
9473;SDS011;8865;47.636;7.692;2023-12-20T03:53:23;4.97;;;4.00;;
9473;SDS011;8865;47.636;7.692;2023-12-20T03:55:49;5.17;;;4.20;;
9473;SDS011;8865;47.636;7.692;2023-12-20T03:58:15;4.83;;;4.30;;
9473;SDS011;8865;47.636;7.692;2023-12-20T04:00:41;5.13;;;3.87;;
9473;SDS011;8865;47.636;7.692;2023-12-20T04:03:07;4.40;;;4.00;;
9473;SDS011;8865;47.636;7.692;2023-12-20T04:05:33;4.33;;;3.93;;
9473;SDS011;8865;47.636;7.692;2023-12-20T04:08:00;5.00;;;4.60;;
9473;SDS011;8865;47.636;7.692;2023-12-20T04:10:27;5.03;;;4.07;;
9473;SDS011;8865;47.636;7.692;2023-12-20T04:12:53;4.50;;;3.70;;
9473;SDS011;8865;47.636;7.692;2023-12-20T04:15:20;4.17;;;3.77;;
9473;SDS011;8865;47.636;7.692;2023-12-20T04:17:46;3.93;;;3.63;;
9473;SDS011;8865;47.636;7.692;2023-12-20T04:20:12;3.87;;;3.17;;
9473;SDS011;8865;47.636;7.692;2023-12-20T04:22:38;3.50;;;3.20;;
9473;SDS011;8865;47.636;7.692;2023-12-20T04:25:04;3.13;;;2.83;;
9473;SDS011;8865;47.636;7.692;2023-12-20T04:27:30;4.17;;;3.00;;
9473;SDS011;8865;47.636;7.692;2023-12-20T04:29:56;4.57;;;4.17;;
9473;SDS011;8865;47.636;7.692;2023-12-20T04:32:23;3.70;;;2.80;;
9473;SDS011;8865;47.636;7.692;2023-12-20T04:34:49;3.03;;;2.83;;
9473;SDS011;8865;47.636;7.692;2023-12-20T04:37:15;2.60;;;2.40;;
9473;SDS011;8865;47.636;7.692;2023-12-20T04:39:41;2.80;;;2.60;;
9473;SDS011;8865;47.636;7.692;2023-12-20T04:42:07;2.70;;;2.50;;
9473;SDS011;8865;47.636;7.692;2023-12-20T04:44:33;3.23;;;2.23;;
9473;SDS011;8865;47.636;7.692;2023-12-20T04:46:59;2.43;;;2.23;;
9473;SDS011;8865;47.636;7.692;2023-12-20T04:49:25;3.13;;;2.53;;
9473;SDS011;8865;47.636;7.692;2023-12-20T04:51:51;2.87;;;2.57;;
9473;SDS011;8865;47.636;7.692;2023-12-20T04:54:17;4.10;;;3.20;;
9473;SDS011;8865;47.636;7.692;2023-12-20T04:56:43;3.93;;;3.37;;
9473;SDS011;8865;47.636;7.692;2023-12-20T04:59:09;3.63;;;2.67;;
9473;SDS011;8865;47.636;7.692;2023-12-20T05:01:35;4.03;;;2.73;;
9473;SDS011;8865;47.636;7.692;2023-12-20T05:04:01;4.67;;;2.70;;
9473;SDS011;8865;47.636;7.692;2023-12-20T05:06:27;3.23;;;2.90;;
9473;SDS011;8865;47.636;7.692;2023-12-20T05:08:53;5.00;;;2.73;;
9473;SDS011;8865;47.636;7.692;2023-12-20T05:11:19;3.20;;;2.80;;
9473;SDS011;8865;47.636;7.692;2023-12-20T05:13:45;3.00;;;2.80;;
9473;SDS011;8865;47.636;7.692;2023-12-20T05:16:11;3.90;;;3.50;;
9473;SDS011;8865;47.636;7.692;2023-12-20T05:18:39;3.57;;;3.27;;
9473;SDS011;8865;47.636;7.692;2023-12-20T05:21:05;4.10;;;3.00;;
9473;SDS011;8865;47.636;7.692;2023-12-20T05:23:32;2.70;;;2.50;;
9473;SDS011;8865;47.636;7.692;2023-12-20T05:25:58;3.97;;;3.07;;
9473;SDS011;8865;47.636;7.692;2023-12-20T05:28:24;3.30;;;3.00;;
9473;SDS011;8865;47.636;7.692;2023-12-20T05:30:51;3.67;;;3.10;;
9473;SDS011;8865;47.636;7.692;2023-12-20T05:33:17;3.03;;;2.50;;
9473;SDS011;8865;47.636;7.692;2023-12-20T05:35:43;4.43;;;2.40;;
9473;SDS011;8865;47.636;7.692;2023-12-20T05:38:09;6.93;;;5.47;;
9473;SDS011;8865;47.636;7.692;2023-12-20T05:40:35;4.03;;;3.57;;
9473;SDS011;8865;47.636;7.692;2023-12-20T05:43:01;3.40;;;3.10;;
9473;SDS011;8865;47.636;7.692;2023-12-20T05:45:27;3.87;;;2.90;;
9473;SDS011;8865;47.636;7.692;2023-12-20T05:47:53;3.17;;;2.67;;
9473;SDS011;8865;47.636;7.692;2023-12-20T05:50:19;2.53;;;2.33;;
9473;SDS011;8865;47.636;7.692;2023-12-20T05:52:46;3.27;;;2.30;;
9473;SDS011;8865;47.636;7.692;2023-12-20T05:55:12;2.90;;;2.60;;
9473;SDS011;8865;47.636;7.692;2023-12-20T05:57:38;8.03;;;6.80;;
9473;SDS011;8865;47.636;7.692;2023-12-20T06:00:04;6.37;;;4.57;;
9473;SDS011;8865;47.636;7.692;2023-12-20T06:02:31;3.00;;;2.23;;
9473;SDS011;8865;47.636;7.692;2023-12-20T06:04:58;2.40;;;2.20;;
9473;SDS011;8865;47.636;7.692;2023-12-20T06:07:24;2.40;;;2.17;;
9473;SDS011;8865;47.636;7.692;2023-12-20T06:09:50;2.80;;;1.80;;
9473;SDS011;8865;47.636;7.692;2023-12-20T06:12:16;1.60;;;1.50;;
9473;SDS011;8865;47.636;7.692;2023-12-20T06:14:42;3.10;;;2.20;;
9473;SDS011;8865;47.636;7.692;2023-12-20T06:17:08;2.57;;;1.80;;
9473;SDS011;8865;47.636;7.692;2023-12-20T06:19:34;1.80;;;1.53;;
9473;SDS011;8865;47.636;7.692;2023-12-20T06:22:00;1.87;;;1.67;;
9473;SDS011;8865;47.636;7.692;2023-12-20T06:24:26;1.60;;;1.50;;
9473;SDS011;8865;47.636;7.692;2023-12-20T06:26:53;1.73;;;1.37;;
9473;SDS011;8865;47.636;7.692;2023-12-20T06:29:20;2.73;;;1.80;;
9473;SDS011;8865;47.636;7.692;2023-12-20T06:31:46;1.90;;;1.80;;
9473;SDS011;8865;47.636;7.692;2023-12-20T06:34:12;1.90;;;1.70;;
9473;SDS011;8865;47.636;7.692;2023-12-20T06:36:38;3.40;;;1.87;;
9473;SDS011;8865;47.636;7.692;2023-12-20T06:39:04;3.70;;;3.10;;
9473;SDS011;8865;47.636;7.692;2023-12-20T06:41:30;4.97;;;4.07;;
9473;SDS011;8865;47.636;7.692;2023-12-20T06:43:56;1.70;;;1.60;;
9473;SDS011;8865;47.636;7.692;2023-12-20T06:46:23;2.10;;;1.27;;
9473;SDS011;8865;47.636;7.692;2023-12-20T06:48:49;1.30;;;1.20;;
9473;SDS011;8865;47.636;7.692;2023-12-20T06:51:15;1.60;;;1.50;;
9473;SDS011;8865;47.636;7.692;2023-12-20T06:53:42;1.47;;;1.37;;
9473;SDS011;8865;47.636;7.692;2023-12-20T06:56:10;1.73;;;1.30;;
9473;SDS011;8865;47.636;7.692;2023-12-20T06:58:37;1.40;;;1.30;;
9473;SDS011;8865;47.636;7.692;2023-12-20T07:01:03;1.13;;;1.03;;
9473;SDS011;8865;47.636;7.692;2023-12-20T07:03:30;0.90;;;0.90;;
9473;SDS011;8865;47.636;7.692;2023-12-20T07:05:56;1.07;;;0.97;;
9473;SDS011;8865;47.636;7.692;2023-12-20T07:08:22;1.10;;;1.00;;
9473;SDS011;8865;47.636;7.692;2023-12-20T07:10:48;1.17;;;1.07;;
9473;SDS011;8865;47.636;7.692;2023-12-20T07:13:14;2.17;;;1.90;;
9473;SDS011;8865;47.636;7.692;2023-12-20T07:15:40;4.87;;;2.00;;
9473;SDS011;8865;47.636;7.692;2023-12-20T07:18:06;1.17;;;1.07;;
9473;SDS011;8865;47.636;7.692;2023-12-20T07:20:33;1.13;;;1.03;;
9473;SDS011;8865;47.636;7.692;2023-12-20T07:22:59;1.20;;;1.10;;
9473;SDS011;8865;47.636;7.692;2023-12-20T07:25:25;1.10;;;1.00;;
9473;SDS011;8865;47.636;7.692;2023-12-20T07:27:51;1.10;;;1.10;;
9473;SDS011;8865;47.636;7.692;2023-12-20T07:30:17;1.50;;;1.40;;
9473;SDS011;8865;47.636;7.692;2023-12-20T07:32:43;1.40;;;1.30;;
9473;SDS011;8865;47.636;7.692;2023-12-20T07:35:09;1.33;;;1.23;;
9473;SDS011;8865;47.636;7.692;2023-12-20T07:37:35;1.30;;;1.20;;
9473;SDS011;8865;47.636;7.692;2023-12-20T07:40:01;2.00;;;1.30;;
9473;SDS011;8865;47.636;7.692;2023-12-20T07:42:27;2.47;;;1.70;;
9473;SDS011;8865;47.636;7.692;2023-12-20T07:44:52;3.00;;;1.90;;
9473;SDS011;8865;47.636;7.692;2023-12-20T07:47:20;3.60;;;2.30;;
9473;SDS011;8865;47.636;7.692;2023-12-20T07:49:50;3.40;;;2.30;;
9473;SDS011;8865;47.636;7.692;2023-12-20T07:52:17;2.97;;;2.10;;
9473;SDS011;8865;47.636;7.692;2023-12-20T07:54:44;2.30;;;2.00;;
9473;SDS011;8865;47.636;7.692;2023-12-20T07:57:11;3.53;;;2.20;;
9473;SDS011;8865;47.636;7.692;2023-12-20T07:59:37;3.27;;;2.00;;
9473;SDS011;8865;47.636;7.692;2023-12-20T08:02:03;2.80;;;2.00;;
9473;SDS011;8865;47.636;7.692;2023-12-20T08:04:30;2.10;;;1.90;;
9473;SDS011;8865;47.636;7.692;2023-12-20T08:06:56;2.77;;;2.07;;
9473;SDS011;8865;47.636;7.692;2023-12-20T08:09:22;2.47;;;2.07;;
9473;SDS011;8865;47.636;7.692;2023-12-20T08:11:48;2.33;;;1.93;;
9473;SDS011;8865;47.636;7.692;2023-12-20T08:14:15;1.90;;;1.70;;
9473;SDS011;8865;47.636;7.692;2023-12-20T08:16:41;2.27;;;1.90;;
9473;SDS011;8865;47.636;7.692;2023-12-20T08:19:07;3.03;;;2.00;;
9473;SDS011;8865;47.636;7.692;2023-12-20T08:21:34;2.20;;;1.90;;
9473;SDS011;8865;47.636;7.692;2023-12-20T08:24:00;2.13;;;1.97;;
9473;SDS011;8865;47.636;7.692;2023-12-20T08:26:29;2.30;;;2.10;;
9473;SDS011;8865;47.636;7.692;2023-12-20T08:28:55;2.40;;;1.93;;
9473;SDS011;8865;47.636;7.692;2023-12-20T08:31:21;3.10;;;2.00;;
9473;SDS011;8865;47.636;7.692;2023-12-20T08:33:48;2.50;;;2.30;;
9473;SDS011;8865;47.636;7.692;2023-12-20T08:36:15;3.97;;;3.40;;
9473;SDS011;8865;47.636;7.692;2023-12-20T08:38:43;4.50;;;3.30;;
9473;SDS011;8865;47.636;7.692;2023-12-20T08:41:09;2.90;;;2.60;;
9473;SDS011;8865;47.636;7.692;2023-12-20T08:43:36;3.07;;;2.30;;
9473;SDS011;8865;47.636;7.692;2023-12-20T08:46:02;2.73;;;2.20;;
9473;SDS011;8865;47.636;7.692;2023-12-20T08:48:28;2.97;;;2.00;;
9473;SDS011;8865;47.636;7.692;2023-12-20T08:50:54;3.07;;;2.00;;
9473;SDS011;8865;47.636;7.692;2023-12-20T08:53:20;2.73;;;2.00;;
9473;SDS011;8865;47.636;7.692;2023-12-20T08:55:46;2.70;;;2.40;;
9473;SDS011;8865;47.636;7.692;2023-12-20T08:58:13;2.70;;;2.27;;
9473;SDS011;8865;47.636;7.692;2023-12-20T09:00:40;2.40;;;1.97;;
9473;SDS011;8865;47.636;7.692;2023-12-20T09:03:06;2.47;;;1.90;;
9473;SDS011;8865;47.636;7.692;2023-12-20T09:05:31;2.63;;;2.10;;
9473;SDS011;8865;47.636;7.692;2023-12-20T09:07:57;3.27;;;2.47;;
9473;SDS011;8865;47.636;7.692;2023-12-20T09:10:23;2.23;;;2.03;;
9473;SDS011;8865;47.636;7.692;2023-12-20T09:12:50;2.67;;;2.40;;
9473;SDS011;8865;47.636;7.692;2023-12-20T09:15:17;2.33;;;1.80;;
9473;SDS011;8865;47.636;7.692;2023-12-20T09:17:43;2.53;;;1.90;;
9473;SDS011;8865;47.636;7.692;2023-12-20T09:20:09;2.37;;;2.17;;
9473;SDS011;8865;47.636;7.692;2023-12-20T09:22:35;2.30;;;2.10;;
9473;SDS011;8865;47.636;7.692;2023-12-20T09:25:04;1.93;;;1.70;;
9473;SDS011;8865;47.636;7.692;2023-12-20T09:27:30;1.63;;;1.53;;
9473;SDS011;8865;47.636;7.692;2023-12-20T09:29:57;1.53;;;1.43;;
9473;SDS011;8865;47.636;7.692;2023-12-20T09:32:23;1.97;;;1.80;;
9473;SDS011;8865;47.636;7.692;2023-12-20T09:34:49;1.73;;;1.63;;
9473;SDS011;8865;47.636;7.692;2023-12-20T09:37:16;1.77;;;1.67;;
9473;SDS011;8865;47.636;7.692;2023-12-20T09:39:42;2.10;;;1.83;;
9473;SDS011;8865;47.636;7.692;2023-12-20T09:42:08;2.40;;;2.20;;
9473;SDS011;8865;47.636;7.692;2023-12-20T09:44:38;2.93;;;2.20;;
9473;SDS011;8865;47.636;7.692;2023-12-20T09:47:07;2.13;;;1.90;;
9473;SDS011;8865;47.636;7.692;2023-12-20T09:49:33;3.60;;;2.40;;
9473;SDS011;8865;47.636;7.692;2023-12-20T09:52:01;2.57;;;2.37;;
9473;SDS011;8865;47.636;7.692;2023-12-20T09:54:30;3.10;;;2.90;;
9473;SDS011;8865;47.636;7.692;2023-12-20T09:56:56;2.50;;;2.17;;
9473;SDS011;8865;47.636;7.692;2023-12-20T09:59:22;2.40;;;2.20;;
9473;SDS011;8865;47.636;7.692;2023-12-20T10:01:48;2.20;;;2.00;;
9473;SDS011;8865;47.636;7.692;2023-12-20T10:04:16;2.50;;;2.30;;
9473;SDS011;8865;47.636;7.692;2023-12-20T10:06:43;2.20;;;2.00;;
9473;SDS011;8865;47.636;7.692;2023-12-20T10:09:10;2.10;;;2.00;;
9473;SDS011;8865;47.636;7.692;2023-12-20T10:11:37;2.20;;;1.97;;
9473;SDS011;8865;47.636;7.692;2023-12-20T10:14:05;2.17;;;1.97;;
9473;SDS011;8865;47.636;7.692;2023-12-20T10:16:32;1.70;;;1.60;;
9473;SDS011;8865;47.636;7.692;2023-12-20T10:18:59;3.03;;;1.70;;
9473;SDS011;8865;47.636;7.692;2023-12-20T10:21:26;1.53;;;1.30;;
9473;SDS011;8865;47.636;7.692;2023-12-20T10:23:56;1.60;;;1.50;;
9473;SDS011;8865;47.636;7.692;2023-12-20T10:26:23;1.93;;;1.73;;
9473;SDS011;8865;47.636;7.692;2023-12-20T10:28:53;1.93;;;1.83;;
9473;SDS011;8865;47.636;7.692;2023-12-20T10:31:26;1.80;;;1.70;;
9473;SDS011;8865;47.636;7.692;2023-12-20T10:33:59;2.37;;;1.67;;
9473;SDS011;8865;47.636;7.692;2023-12-20T10:36:27;4.10;;;3.70;;
9473;SDS011;8865;47.636;7.692;2023-12-20T10:38:55;3.20;;;1.90;;
9473;SDS011;8865;47.636;7.692;2023-12-20T10:41:27;1.40;;;1.30;;
9473;SDS011;8865;47.636;7.692;2023-12-20T10:43:59;1.30;;;1.20;;
9473;SDS011;8865;47.636;7.692;2023-12-20T10:46:27;1.90;;;1.27;;
9473;SDS011;8865;47.636;7.692;2023-12-20T10:48:56;1.43;;;1.33;;
9473;SDS011;8865;47.636;7.692;2023-12-20T10:51:23;2.85;;;1.15;;
9473;SDS011;8865;47.636;7.692;2023-12-20T10:53:52;1.60;;;1.17;;
9473;SDS011;8865;47.636;7.692;2023-12-20T10:56:19;1.83;;;1.00;;
9473;SDS011;8865;47.636;7.692;2023-12-20T10:58:48;1.33;;;1.23;;
9473;SDS011;8865;47.636;7.692;2023-12-20T11:01:18;1.38;;;1.10;;
9473;SDS011;8865;47.636;7.692;2023-12-20T11:03:49;2.03;;;1.35;;
9473;SDS011;8865;47.636;7.692;2023-12-20T11:08:52;2.23;;;1.70;;
9473;SDS011;8865;47.636;7.692;2023-12-20T11:11:35;3.40;;;2.33;;
9473;SDS011;8865;47.636;7.692;2023-12-20T11:14:18;2.67;;;1.93;;
9473;SDS011;8865;47.636;7.692;2023-12-20T11:16:49;2.23;;;1.87;;
9473;SDS011;8865;47.636;7.692;2023-12-20T11:19:17;1.77;;;1.37;;
9473;SDS011;8865;47.636;7.692;2023-12-20T11:21:43;1.93;;;1.10;;
9473;SDS011;8865;47.636;7.692;2023-12-20T11:24:09;1.23;;;1.10;;
9473;SDS011;8865;47.636;7.692;2023-12-20T11:26:36;1.90;;;1.27;;
9473;SDS011;8865;47.636;7.692;2023-12-20T11:32:03;2.08;;;1.50;;
9473;SDS011;8865;47.636;7.692;2023-12-20T11:34:50;2.97;;;1.50;;
9473;SDS011;8865;47.636;7.692;2023-12-20T11:37:17;2.87;;;1.50;;
9473;SDS011;8865;47.636;7.692;2023-12-20T11:39:45;2.17;;;1.60;;
9473;SDS011;8865;47.636;7.692;2023-12-20T11:42:19;2.20;;;1.70;;
9473;SDS011;8865;47.636;7.692;2023-12-20T11:44:46;3.33;;;1.83;;
9473;SDS011;8865;47.636;7.692;2023-12-20T11:47:12;3.53;;;1.83;;
9473;SDS011;8865;47.636;7.692;2023-12-20T11:49:39;2.97;;;1.70;;
9473;SDS011;8865;47.636;7.692;2023-12-20T11:52:06;2.10;;;1.90;;
9473;SDS011;8865;47.636;7.692;2023-12-20T11:54:32;2.33;;;1.90;;
9473;SDS011;8865;47.636;7.692;2023-12-20T11:56:58;2.50;;;2.10;;
9473;SDS011;8865;47.636;7.692;2023-12-20T11:59:24;3.40;;;2.17;;
9473;SDS011;8865;47.636;7.692;2023-12-20T12:01:50;2.63;;;1.80;;
9473;SDS011;8865;47.636;7.692;2023-12-20T12:04:16;3.33;;;2.00;;
9473;SDS011;8865;47.636;7.692;2023-12-20T12:06:43;3.13;;;2.23;;
9473;SDS011;8865;47.636;7.692;2023-12-20T12:09:12;2.63;;;2.20;;
9473;SDS011;8865;47.636;7.692;2023-12-20T12:11:38;3.73;;;2.03;;
9473;SDS011;8865;47.636;7.692;2023-12-20T12:14:04;3.03;;;1.80;;
9473;SDS011;8865;47.636;7.692;2023-12-20T12:16:32;2.27;;;1.80;;
9473;SDS011;8865;47.636;7.692;2023-12-20T12:18:58;2.77;;;1.50;;
9473;SDS011;8865;47.636;7.692;2023-12-20T12:21:25;3.83;;;1.53;;
9473;SDS011;8865;47.636;7.692;2023-12-20T12:23:51;2.00;;;1.40;;
9473;SDS011;8865;47.636;7.692;2023-12-20T12:26:18;2.73;;;1.50;;
9473;SDS011;8865;47.636;7.692;2023-12-20T12:28:44;2.17;;;1.30;;
9473;SDS011;8865;47.636;7.692;2023-12-20T12:31:14;2.13;;;1.43;;
9473;SDS011;8865;47.636;7.692;2023-12-20T12:33:41;4.27;;;1.50;;
9473;SDS011;8865;47.636;7.692;2023-12-20T12:36:07;2.63;;;1.53;;
9473;SDS011;8865;47.636;7.692;2023-12-20T12:38:34;2.03;;;1.50;;
9473;SDS011;8865;47.636;7.692;2023-12-20T12:41:00;2.83;;;1.50;;
9473;SDS011;8865;47.636;7.692;2023-12-20T12:43:26;4.23;;;1.40;;
9473;SDS011;8865;47.636;7.692;2023-12-20T12:45:53;1.63;;;1.27;;
9473;SDS011;8865;47.636;7.692;2023-12-20T12:48:19;4.60;;;1.43;;
9473;SDS011;8865;47.636;7.692;2023-12-20T12:50:46;3.97;;;1.30;;
9473;SDS011;8865;47.636;7.692;2023-12-20T12:53:12;5.60;;;1.50;;
9473;SDS011;8865;47.636;7.692;2023-12-20T12:55:38;4.00;;;1.70;;
9473;SDS011;8865;47.636;7.692;2023-12-20T12:58:04;3.90;;;1.53;;
9473;SDS011;8865;47.636;7.692;2023-12-20T13:00:30;3.10;;;1.70;;
9473;SDS011;8865;47.636;7.692;2023-12-20T13:02:56;4.87;;;1.60;;
9473;SDS011;8865;47.636;7.692;2023-12-20T13:05:22;3.73;;;1.53;;
9473;SDS011;8865;47.636;7.692;2023-12-20T13:07:48;3.90;;;1.97;;
9473;SDS011;8865;47.636;7.692;2023-12-20T13:10:14;3.93;;;2.00;;
9473;SDS011;8865;47.636;7.692;2023-12-20T13:12:43;5.10;;;1.80;;
9473;SDS011;8865;47.636;7.692;2023-12-20T13:15:09;5.27;;;2.10;;
9473;SDS011;8865;47.636;7.692;2023-12-20T13:17:35;2.53;;;1.80;;
9473;SDS011;8865;47.636;7.692;2023-12-20T13:20:03;4.93;;;2.00;;
9473;SDS011;8865;47.636;7.692;2023-12-20T13:22:29;5.33;;;1.60;;
9473;SDS011;8865;47.636;7.692;2023-12-20T13:24:55;3.47;;;1.70;;
9473;SDS011;8865;47.636;7.692;2023-12-20T13:27:21;3.80;;;1.93;;
9473;SDS011;8865;47.636;7.692;2023-12-20T13:29:47;5.13;;;1.40;;
9473;SDS011;8865;47.636;7.692;2023-12-20T13:32:14;5.13;;;1.60;;
9473;SDS011;8865;47.636;7.692;2023-12-20T13:34:40;4.70;;;1.40;;
9473;SDS011;8865;47.636;7.692;2023-12-20T13:37:06;4.37;;;1.40;;
9473;SDS011;8865;47.636;7.692;2023-12-20T13:39:32;3.87;;;1.70;;
9473;SDS011;8865;47.636;7.692;2023-12-20T13:41:58;4.17;;;1.60;;
9473;SDS011;8865;47.636;7.692;2023-12-20T13:44:24;2.80;;;1.33;;
9473;SDS011;8865;47.636;7.692;2023-12-20T13:46:50;4.00;;;1.23;;
9473;SDS011;8865;47.636;7.692;2023-12-20T13:49:16;3.63;;;1.33;;
9473;SDS011;8865;47.636;7.692;2023-12-20T13:51:43;5.53;;;1.90;;
9473;SDS011;8865;47.636;7.692;2023-12-20T13:54:08;4.57;;;2.60;;
9473;SDS011;8865;47.636;7.692;2023-12-20T13:56:37;5.83;;;1.40;;
9473;SDS011;8865;47.636;7.692;2023-12-20T13:59:03;2.77;;;1.40;;
9473;SDS011;8865;47.636;7.692;2023-12-20T14:01:29;5.83;;;1.60;;
9473;SDS011;8865;47.636;7.692;2023-12-20T14:03:55;4.23;;;1.80;;
9473;SDS011;8865;47.636;7.692;2023-12-20T14:06:21;6.70;;;2.17;;
9473;SDS011;8865;47.636;7.692;2023-12-20T14:08:47;4.03;;;1.73;;
9473;SDS011;8865;47.636;7.692;2023-12-20T14:11:14;4.23;;;2.67;;
9473;SDS011;8865;47.636;7.692;2023-12-20T14:13:41;5.17;;;2.20;;
9473;SDS011;8865;47.636;7.692;2023-12-20T14:16:07;4.63;;;1.90;;
9473;SDS011;8865;47.636;7.692;2023-12-20T14:18:33;4.20;;;1.40;;
9473;SDS011;8865;47.636;7.692;2023-12-20T14:20:59;6.47;;;1.90;;
9473;SDS011;8865;47.636;7.692;2023-12-20T14:23:25;3.57;;;1.60;;
9473;SDS011;8865;47.636;7.692;2023-12-20T14:25:51;3.10;;;1.53;;
9473;SDS011;8865;47.636;7.692;2023-12-20T14:28:19;4.87;;;1.50;;
9473;SDS011;8865;47.636;7.692;2023-12-20T14:30:45;6.60;;;1.80;;
9473;SDS011;8865;47.636;7.692;2023-12-20T14:33:11;5.10;;;1.70;;
9473;SDS011;8865;47.636;7.692;2023-12-20T14:35:37;5.87;;;1.80;;
9473;SDS011;8865;47.636;7.692;2023-12-20T14:38:03;3.90;;;1.80;;
9473;SDS011;8865;47.636;7.692;2023-12-20T14:40:29;5.67;;;1.20;;
9473;SDS011;8865;47.636;7.692;2023-12-20T14:42:55;5.73;;;1.40;;
9473;SDS011;8865;47.636;7.692;2023-12-20T14:45:23;5.70;;;1.60;;
9473;SDS011;8865;47.636;7.692;2023-12-20T14:47:49;4.90;;;1.77;;
9473;SDS011;8865;47.636;7.692;2023-12-20T14:50:15;4.70;;;1.67;;
9473;SDS011;8865;47.636;7.692;2023-12-20T14:52:44;4.47;;;1.97;;
9473;SDS011;8865;47.636;7.692;2023-12-20T14:55:11;5.10;;;2.03;;
9473;SDS011;8865;47.636;7.692;2023-12-20T14:57:37;5.73;;;2.37;;
9473;SDS011;8865;47.636;7.692;2023-12-20T15:00:04;5.60;;;2.80;;
9473;SDS011;8865;47.636;7.692;2023-12-20T15:02:31;4.60;;;1.77;;
9473;SDS011;8865;47.636;7.692;2023-12-20T15:04:57;4.47;;;1.60;;
9473;SDS011;8865;47.636;7.692;2023-12-20T15:07:23;4.93;;;1.50;;
9473;SDS011;8865;47.636;7.692;2023-12-20T15:09:50;3.77;;;1.70;;
9473;SDS011;8865;47.636;7.692;2023-12-20T15:12:16;3.30;;;1.90;;
9473;SDS011;8865;47.636;7.692;2023-12-20T15:14:42;5.43;;;1.70;;
9473;SDS011;8865;47.636;7.692;2023-12-20T15:17:08;4.97;;;1.90;;
9473;SDS011;8865;47.636;7.692;2023-12-20T15:19:35;4.00;;;1.80;;